createdAt,value
2016-06-30T00:00:44.137Z,22.61
2016-06-30T00:01:44.118Z,22.64
2016-06-30T00:02:44.112Z,22.61
2016-06-30T00:03:44.098Z,22.56
2016-06-30T00:04:44.085Z,22.59
2016-06-30T00:05:44.047Z,22.57
2016-06-30T00:06:44.061Z,22.56
2016-06-30T00:07:44.030Z,22.56
2016-06-30T00:08:44.011Z,22.63
2016-06-30T00:09:43.399Z,22.59
2016-06-30T00:10:43.377Z,22.63
2016-06-30T00:11:43.991Z,22.66
2016-06-30T00:12:43.959Z,22.57
2016-06-30T00:13:43.941Z,22.67
2016-06-30T00:14:43.922Z,22.6
2016-06-30T00:15:43.926Z,22.64
2016-06-30T00:16:43.915Z,22.67
2016-06-30T00:17:43.901Z,22.64
2016-06-30T00:18:43.885Z,22.66
2016-06-30T00:19:43.848Z,22.7
2016-06-30T00:20:43.840Z,22.69
2016-06-30T00:21:43.825Z,22.69
2016-06-30T00:22:43.222Z,22.63
2016-06-30T00:23:43.789Z,22.64
2016-06-30T00:24:43.775Z,22.67
2016-06-30T00:25:43.763Z,22.67
2016-06-30T00:26:43.770Z,22.72
2016-06-30T00:27:43.731Z,22.69
2016-06-30T00:28:43.704Z,22.72
2016-06-30T00:29:43.713Z,22.69
2016-06-30T00:30:43.699Z,22.72
2016-06-30T00:31:43.682Z,22.72
2016-06-30T00:32:43.654Z,22.7
2016-06-30T00:33:43.642Z,22.67
2016-06-30T00:34:43.641Z,22.67
2016-06-30T00:35:43.618Z,22.7
2016-06-30T00:36:43.586Z,22.69
2016-06-30T00:37:43.586Z,22.66
2016-06-30T00:38:43.562Z,22.67
2016-06-30T00:39:42.949Z,22.69
2016-06-30T00:40:43.528Z,22.66
2016-06-30T00:41:43.526Z,22.67
2016-06-30T00:42:43.510Z,22.7
2016-06-30T00:43:43.502Z,22.7
2016-06-30T00:44:43.487Z,22.69
2016-06-30T00:45:43.479Z,22.7
2016-06-30T00:46:43.453Z,22.63
2016-06-30T00:47:43.430Z,22.74
2016-06-30T00:48:43.423Z,22.74
2016-06-30T00:49:43.391Z,22.75
2016-06-30T00:50:43.409Z,22.7
2016-06-30T00:51:43.367Z,22.7
2016-06-30T00:52:42.773Z,22.72
2016-06-30T00:53:43.339Z,22.67
2016-06-30T00:54:43.547Z,22.7
2016-06-30T00:55:43.310Z,22.72
2016-06-30T00:56:43.312Z,22.69
2016-06-30T00:57:43.286Z,22.75
2016-06-30T00:58:43.371Z,22.7
2016-06-30T00:59:43.257Z,22.74
2016-06-30T01:00:43.235Z,22.69
2016-06-30T01:01:43.228Z,22.67
2016-06-30T01:02:43.217Z,22.67
2016-06-30T01:03:43.204Z,22.7
2016-06-30T01:04:43.181Z,22.72
2016-06-30T01:05:43.175Z,22.7
2016-06-30T01:06:43.151Z,22.75
2016-06-30T01:07:43.143Z,22.69
2016-06-30T01:08:43.109Z,22.69
2016-06-30T01:09:43.100Z,22.66
2016-06-30T01:10:43.119Z,22.7
2016-06-30T01:11:42.482Z,22.64
2016-06-30T01:12:43.070Z,22.64
2016-06-30T01:13:43.054Z,22.74
2016-06-30T01:14:43.043Z,22.75
2016-06-30T01:15:43.017Z,22.69
2016-06-30T01:16:43.003Z,22.69
2016-06-30T01:17:43.001Z,22.7
2016-06-30T01:18:42.984Z,22.69
2016-06-30T01:19:42.951Z,22.66
2016-06-30T01:20:42.956Z,22.75
2016-06-30T01:21:42.939Z,22.72
2016-06-30T01:22:42.937Z,22.74
2016-06-30T01:23:42.891Z,22.75
2016-06-30T01:24:42.899Z,22.76
2016-06-30T01:25:42.272Z,22.74
2016-06-30T01:26:42.871Z,22.76
2016-06-30T01:27:42.854Z,22.74
2016-06-30T01:28:42.824Z,22.74
2016-06-30T01:29:42.813Z,22.67
2016-06-30T01:30:42.801Z,22.75
2016-06-30T01:31:42.780Z,22.67
2016-06-30T01:32:42.757Z,22.72
2016-06-30T01:33:42.764Z,22.74
2016-06-30T01:34:42.738Z,22.7
2016-06-30T01:35:42.730Z,22.74
2016-06-30T01:36:42.726Z,22.69
2016-06-30T01:37:42.709Z,22.7
2016-06-30T01:38:42.682Z,22.72
2016-06-30T01:39:42.679Z,22.69
2016-06-30T01:40:42.673Z,22.7
2016-06-30T01:41:42.643Z,22.74
2016-06-30T01:42:42.627Z,22.67
2016-06-30T01:43:42.611Z,22.66
2016-06-30T01:44:42.586Z,22.66
2016-06-30T01:45:42.578Z,22.75
2016-06-30T01:46:42.572Z,22.7
2016-06-30T01:47:42.555Z,22.75
2016-06-30T01:48:42.531Z,22.69
2016-06-30T01:49:42.525Z,22.66
2016-06-30T01:50:42.518Z,22.69
2016-06-30T01:51:42.509Z,22.69
2016-06-30T01:52:42.513Z,22.72
2016-06-30T01:53:42.487Z,22.75
2016-06-30T01:54:42.454Z,22.64
2016-06-30T01:55:42.444Z,22.74
2016-06-30T01:56:42.425Z,22.72
2016-06-30T01:57:42.389Z,22.69
2016-06-30T01:58:42.379Z,22.75
2016-06-30T01:59:42.377Z,22.74
2016-06-30T02:00:42.390Z,22.7
2016-06-30T02:01:42.330Z,22.76
2016-06-30T02:02:42.327Z,22.76
2016-06-30T02:03:42.326Z,22.74
2016-06-30T02:04:42.306Z,22.72
2016-06-30T02:05:42.277Z,22.69
2016-06-30T02:06:42.280Z,22.67
2016-06-30T02:07:42.254Z,22.76
2016-06-30T02:08:42.259Z,22.75
2016-06-30T02:09:42.226Z,22.69
2016-06-30T02:10:42.208Z,22.74
2016-06-30T02:11:42.221Z,22.67
2016-06-30T02:12:42.184Z,22.75
2016-06-30T02:13:42.166Z,22.75
2016-06-30T02:14:42.149Z,22.74
2016-06-30T02:15:42.143Z,22.69
2016-06-30T02:16:42.127Z,22.72
2016-06-30T02:17:42.105Z,22.7
2016-06-30T02:18:42.100Z,22.72
2016-06-30T02:19:42.074Z,22.7
2016-06-30T02:20:42.066Z,22.67
2016-06-30T02:21:42.046Z,22.67
2016-06-30T02:22:42.066Z,22.76
2016-06-30T02:23:42.022Z,22.75
2016-06-30T02:24:41.999Z,22.72
2016-06-30T02:25:41.993Z,22.72
2016-06-30T02:26:41.990Z,22.69
2016-06-30T02:27:41.985Z,22.67
2016-06-30T02:28:41.343Z,22.66
2016-06-30T02:29:41.930Z,22.76
2016-06-30T02:30:41.913Z,22.7
2016-06-30T02:31:41.901Z,22.7
2016-06-30T02:32:41.887Z,22.69
2016-06-30T02:33:41.881Z,22.74
2016-06-30T02:34:41.885Z,22.7
2016-06-30T02:35:41.851Z,22.7
2016-06-30T02:36:41.845Z,22.75
2016-06-30T02:37:41.804Z,22.7
2016-06-30T02:38:41.802Z,22.72
2016-06-30T02:39:41.789Z,22.74
2016-06-30T02:40:41.828Z,22.72
2016-06-30T02:41:41.741Z,22.75
2016-06-30T02:42:41.749Z,22.72
2016-06-30T02:43:41.736Z,22.74
2016-06-30T02:44:41.725Z,22.76
2016-06-30T02:45:41.703Z,22.74
2016-06-30T02:46:41.679Z,22.7
2016-06-30T02:47:41.667Z,22.69
2016-06-30T02:48:41.662Z,22.72
2016-06-30T02:49:41.626Z,22.66
2016-06-30T02:50:41.616Z,22.74
2016-06-30T02:51:41.613Z,22.67
2016-06-30T02:52:41.621Z,22.7
2016-06-30T02:53:41.584Z,22.76
2016-06-30T02:54:41.559Z,22.76
2016-06-30T02:55:41.557Z,22.69
2016-06-30T02:56:41.542Z,22.76
2016-06-30T02:57:41.511Z,22.7
2016-06-30T02:58:41.494Z,22.74
2016-06-30T02:59:41.477Z,22.69
2016-06-30T03:00:41.483Z,22.69
2016-06-30T03:01:41.468Z,22.74
2016-06-30T03:02:41.441Z,22.79
2016-06-30T03:03:41.427Z,22.72
2016-06-30T03:04:41.424Z,22.69
2016-06-30T03:05:41.394Z,22.79
2016-06-30T03:06:41.390Z,22.67
2016-06-30T03:07:41.378Z,22.74
2016-06-30T03:08:41.356Z,22.7
2016-06-30T03:09:41.348Z,22.78
2016-06-30T03:10:41.326Z,22.76
2016-06-30T03:11:41.295Z,22.7
2016-06-30T03:12:41.522Z,22.76
2016-06-30T03:13:41.272Z,22.75
2016-06-30T03:14:41.282Z,22.67
2016-06-30T03:15:41.246Z,22.69
2016-06-30T03:16:41.237Z,22.74
2016-06-30T03:17:41.223Z,22.64
2016-06-30T03:18:41.257Z,22.67
2016-06-30T03:19:41.193Z,22.67
2016-06-30T03:20:40.587Z,22.7
2016-06-30T03:21:41.409Z,22.74
2016-06-30T03:22:40.553Z,22.75
2016-06-30T03:23:41.362Z,22.75
2016-06-30T03:24:41.105Z,22.74
2016-06-30T03:25:41.096Z,22.74
2016-06-30T03:26:41.087Z,22.69
2016-06-30T03:27:41.072Z,22.67
2016-06-30T03:28:41.066Z,22.7
2016-06-30T03:29:40.482Z,22.67
2016-06-30T03:30:39.852Z,22.72
2016-06-30T03:31:40.452Z,22.69
2016-06-30T03:32:40.390Z,22.7
2016-06-30T03:33:40.400Z,22.74
2016-06-30T03:34:40.385Z,22.7
2016-06-30T03:35:40.958Z,22.67
2016-06-30T03:36:40.978Z,22.67
2016-06-30T03:37:40.930Z,22.67
2016-06-30T03:38:40.919Z,22.72
2016-06-30T03:39:40.890Z,22.69
2016-06-30T03:40:40.886Z,22.7
2016-06-30T03:41:40.875Z,22.67
2016-06-30T03:42:40.845Z,22.74
2016-06-30T03:43:40.839Z,22.67
2016-06-30T03:44:40.819Z,22.7
2016-06-30T03:45:40.806Z,22.66
2016-06-30T03:46:40.795Z,22.69
2016-06-30T03:47:40.782Z,22.66
2016-06-30T03:48:40.770Z,22.69
2016-06-30T03:49:40.748Z,22.7
2016-06-30T03:50:40.727Z,22.7
2016-06-30T03:51:40.714Z,22.67
2016-06-30T03:52:40.102Z,22.67
2016-06-30T03:53:40.689Z,22.69
2016-06-30T03:54:40.061Z,22.7
2016-06-30T03:55:40.658Z,22.69
2016-06-30T03:56:40.645Z,22.72
2016-06-30T03:57:40.634Z,22.7
2016-06-30T03:58:40.614Z,22.69
2016-06-30T03:59:40.606Z,22.7
2016-06-30T04:00:40.587Z,22.69
2016-06-30T04:01:40.570Z,22.67
2016-06-30T04:02:40.538Z,22.67
2016-06-30T04:03:40.537Z,22.7
2016-06-30T04:04:40.538Z,22.64
2016-06-30T04:05:40.505Z,22.67
2016-06-30T04:06:40.487Z,22.67
2016-06-30T04:07:40.479Z,22.74
2016-06-30T04:08:40.485Z,22.69
2016-06-30T04:09:40.448Z,22.69
2016-06-30T04:10:40.453Z,22.69
2016-06-30T04:11:39.821Z,22.7
2016-06-30T04:12:39.801Z,22.7
2016-06-30T04:13:40.406Z,22.66
2016-06-30T04:14:40.379Z,22.64
2016-06-30T04:15:40.357Z,22.69
2016-06-30T04:16:40.338Z,22.7
2016-06-30T04:17:40.348Z,22.72
2016-06-30T04:18:39.716Z,22.66
2016-06-30T04:19:40.293Z,22.7
2016-06-30T04:20:40.303Z,22.67
2016-06-30T04:21:40.273Z,22.67
2016-06-30T04:22:40.260Z,22.67
2016-06-30T04:23:40.254Z,22.69
2016-06-30T04:24:40.275Z,22.69
2016-06-30T04:25:40.238Z,22.64
2016-06-30T04:26:40.183Z,22.72
2016-06-30T04:27:40.198Z,22.7
2016-06-30T04:28:40.150Z,22.74
2016-06-30T04:29:39.784Z,22.64
2016-06-30T04:30:40.151Z,22.7
2016-06-30T04:31:40.122Z,22.64
2016-06-30T04:32:40.111Z,22.72
2016-06-30T04:33:40.131Z,22.7
2016-06-30T04:34:40.099Z,22.66
2016-06-30T04:35:40.071Z,22.7
2016-06-30T04:36:40.049Z,22.72
2016-06-30T04:37:40.040Z,22.72
2016-06-30T04:38:40.024Z,22.7
2016-06-30T04:39:39.995Z,22.67
2016-06-30T04:40:40.031Z,22.67
2016-06-30T04:41:39.982Z,22.67
2016-06-30T04:42:39.977Z,22.72
2016-06-30T04:43:39.940Z,22.67
2016-06-30T04:44:39.955Z,22.66
2016-06-30T04:45:39.904Z,22.74
2016-06-30T04:46:39.914Z,22.67
2016-06-30T04:47:39.896Z,22.69
2016-06-30T04:48:39.870Z,22.74
2016-06-30T04:49:39.855Z,22.74
2016-06-30T04:50:39.846Z,22.7
2016-06-30T04:51:39.270Z,22.67
2016-06-30T04:52:39.822Z,22.74
2016-06-30T04:53:39.845Z,22.69
2016-06-30T04:54:39.782Z,22.7
2016-06-30T04:55:39.794Z,22.7
2016-06-30T04:56:39.758Z,22.75
2016-06-30T04:57:39.749Z,22.75
2016-06-30T04:58:39.728Z,22.72
2016-06-30T04:59:39.725Z,22.7
2016-06-30T05:00:39.700Z,22.69
2016-06-30T05:01:39.678Z,22.75
2016-06-30T05:02:39.669Z,22.76
2016-06-30T05:03:39.659Z,22.69
2016-06-30T05:04:39.038Z,22.69
2016-06-30T05:05:39.623Z,22.69
2016-06-30T05:06:39.626Z,22.76
2016-06-30T05:07:39.585Z,22.72
2016-06-30T05:08:39.586Z,22.69
2016-06-30T05:09:39.563Z,22.66
2016-06-30T05:10:39.541Z,22.75
2016-06-30T05:11:39.535Z,22.67
2016-06-30T05:12:39.520Z,22.69
2016-06-30T05:13:39.514Z,22.7
2016-06-30T05:14:39.491Z,22.67
2016-06-30T05:15:39.469Z,22.69
2016-06-30T05:16:39.467Z,22.67
2016-06-30T05:17:39.446Z,22.76
2016-06-30T05:18:39.427Z,22.7
2016-06-30T05:19:39.418Z,22.75
2016-06-30T05:20:39.409Z,22.67
2016-06-30T05:21:39.379Z,22.69
2016-06-30T05:22:39.381Z,22.7
2016-06-30T05:23:39.383Z,22.69
2016-06-30T05:24:39.344Z,22.64
2016-06-30T05:25:38.718Z,22.69
2016-06-30T05:26:39.320Z,22.69
2016-06-30T05:27:39.305Z,22.66
2016-06-30T05:28:39.282Z,22.7
2016-06-30T05:29:39.275Z,22.67
2016-06-30T05:30:38.646Z,22.67
2016-06-30T05:31:39.238Z,22.7
2016-06-30T05:32:39.253Z,22.66
2016-06-30T05:33:39.207Z,22.64
2016-06-30T05:34:39.182Z,22.66
2016-06-30T05:35:39.213Z,22.69
2016-06-30T05:36:39.187Z,22.64
2016-06-30T05:37:39.170Z,22.67
2016-06-30T05:38:39.199Z,22.72
2016-06-30T05:39:39.122Z,22.72
2016-06-30T05:40:39.107Z,22.67
2016-06-30T05:41:39.095Z,22.66
2016-06-30T05:42:39.077Z,22.7
2016-06-30T05:43:39.055Z,22.72
2016-06-30T05:44:39.049Z,22.69
2016-06-30T05:45:38.443Z,22.7
2016-06-30T05:46:39.022Z,22.74
2016-06-30T05:47:38.994Z,22.67
2016-06-30T05:48:38.985Z,22.7
2016-06-30T05:49:38.973Z,22.74
2016-06-30T05:50:38.959Z,22.69
2016-06-30T05:51:38.934Z,22.7
2016-06-30T05:52:38.956Z,22.64
2016-06-30T05:53:38.906Z,22.67
2016-06-30T05:54:38.900Z,22.64
2016-06-30T05:55:38.295Z,22.67
2016-06-30T05:56:38.871Z,22.64
2016-06-30T05:57:38.855Z,22.66
2016-06-30T05:58:38.848Z,22.7
2016-06-30T05:59:38.831Z,22.7
2016-06-30T06:00:38.803Z,22.67
2016-06-30T06:01:38.791Z,22.69
2016-06-30T06:02:38.779Z,22.61
2016-06-30T06:03:38.756Z,22.61
2016-06-30T06:04:38.760Z,22.7
2016-06-30T06:05:38.753Z,22.66
2016-06-30T06:06:38.733Z,22.69
2016-06-30T06:07:38.710Z,22.7
2016-06-30T06:08:38.691Z,22.64
2016-06-30T06:09:38.716Z,22.69
2016-06-30T06:10:38.673Z,22.7
2016-06-30T06:11:38.650Z,22.69
2016-06-30T06:12:38.637Z,22.69
2016-06-30T06:13:38.616Z,22.66
2016-06-30T06:14:38.622Z,22.59
2016-06-30T06:15:38.593Z,22.57
2016-06-30T06:16:38.589Z,22.64
2016-06-30T06:17:38.551Z,22.63
2016-06-30T06:18:38.548Z,22.61
2016-06-30T06:19:38.533Z,22.52
2016-06-30T06:20:38.536Z,21.93
2016-06-30T06:21:38.516Z,21.79
2016-06-30T06:22:38.504Z,21.68
2016-06-30T06:23:38.487Z,21.53
2016-06-30T06:24:38.464Z,21.4
2016-06-30T06:25:38.439Z,21.28
2016-06-30T06:26:38.428Z,21.16
2016-06-30T06:27:38.418Z,21.06
2016-06-30T06:28:38.398Z,21.06
2016-06-30T06:29:38.376Z,20.98
2016-06-30T06:30:38.363Z,21.03
2016-06-30T06:31:38.373Z,21.12
2016-06-30T06:32:37.727Z,21.09
2016-06-30T06:33:38.318Z,21.06
2016-06-30T06:34:38.305Z,21.15
2016-06-30T06:35:38.295Z,21.03
2016-06-30T06:36:38.270Z,21.05
2016-06-30T06:37:38.281Z,21.06
2016-06-30T06:38:38.257Z,21
2016-06-30T06:39:38.231Z,20.85
2016-06-30T06:40:38.219Z,20.91
2016-06-30T06:41:38.202Z,20.9
2016-06-30T06:42:38.181Z,20.76
2016-06-30T06:43:37.780Z,20.87
2016-06-30T06:44:38.162Z,20.87
2016-06-30T06:45:37.534Z,20.94
2016-06-30T06:46:38.115Z,21.18
2016-06-30T06:47:38.104Z,21.42
2016-06-30T06:48:38.085Z,21.55
2016-06-30T06:49:38.071Z,21.63
2016-06-30T06:50:38.069Z,21.74
2016-06-30T06:51:37.445Z,21.82
2016-06-30T06:52:38.045Z,21.93
2016-06-30T06:53:37.420Z,22.09
2016-06-30T06:54:37.998Z,22.12
2016-06-30T06:55:37.983Z,22.11
2016-06-30T06:56:37.970Z,22.24
2016-06-30T06:57:37.950Z,22.2
2016-06-30T06:58:37.990Z,22.24
2016-06-30T06:59:37.922Z,22.2
2016-06-30T07:00:37.909Z,22.24
2016-06-30T07:01:37.897Z,22.3
2016-06-30T07:02:37.866Z,22.39
2016-06-30T07:03:37.853Z,22.38
2016-06-30T07:04:37.850Z,22.3
2016-06-30T07:05:37.834Z,22.33
2016-06-30T07:06:37.804Z,22.41
2016-06-30T07:07:37.808Z,22.51
2016-06-30T07:08:37.791Z,22.52
2016-06-30T07:09:37.163Z,22.54
2016-06-30T07:10:37.752Z,22.48
2016-06-30T07:11:37.754Z,22.44
2016-06-30T07:12:37.722Z,22.54
2016-06-30T07:13:37.701Z,22.49
2016-06-30T07:14:37.706Z,22.54
2016-06-30T07:15:37.699Z,22.57
2016-06-30T07:16:37.676Z,22.45
2016-06-30T07:17:37.671Z,22.45
2016-06-30T07:18:37.631Z,22.57
2016-06-30T07:19:37.646Z,22.54
2016-06-30T07:20:37.614Z,22.52
2016-06-30T07:21:37.002Z,22.52
2016-06-30T07:22:37.572Z,22.59
2016-06-30T07:23:36.961Z,22.49
2016-06-30T07:24:37.549Z,22.54
2016-06-30T07:25:37.538Z,22.56
2016-06-30T07:26:37.509Z,22.45
2016-06-30T07:27:37.508Z,22.56
2016-06-30T07:28:37.479Z,22.59
2016-06-30T07:29:37.484Z,22.57
2016-06-30T07:30:37.463Z,22.48
2016-06-30T07:31:37.444Z,22.49
2016-06-30T07:32:37.430Z,22.52
2016-06-30T07:33:37.402Z,22.6
2016-06-30T07:34:37.387Z,22.57
2016-06-30T07:35:37.394Z,22.69
2016-06-30T07:36:37.371Z,22.67
2016-06-30T07:37:37.344Z,22.69
2016-06-30T07:38:37.379Z,22.74
2016-06-30T07:39:37.315Z,22.72
2016-06-30T07:40:37.304Z,22.72
2016-06-30T07:41:37.311Z,22.76
2016-06-30T07:42:37.268Z,22.69
2016-06-30T07:43:37.257Z,22.67
2016-06-30T07:44:37.247Z,22.66
2016-06-30T07:45:37.229Z,22.7
2016-06-30T07:46:37.221Z,22.72
2016-06-30T07:47:37.246Z,22.74
2016-06-30T07:48:37.190Z,22.74
2016-06-30T07:49:37.180Z,22.69
2016-06-30T07:50:36.546Z,22.75
2016-06-30T07:51:36.561Z,22.75
2016-06-30T07:52:36.529Z,22.75
2016-06-30T07:53:37.108Z,22.79
2016-06-30T07:54:36.484Z,22.81
2016-06-30T07:55:37.071Z,22.81
2016-06-30T07:56:37.067Z,22.81
2016-06-30T07:57:37.051Z,22.86
2016-06-30T07:58:37.031Z,22.82
2016-06-30T07:59:37.015Z,22.81
2016-06-30T08:00:37.003Z,22.74
2016-06-30T08:01:36.985Z,22.75
2016-06-30T08:02:36.979Z,22.7
2016-06-30T08:03:36.963Z,22.72
2016-06-30T08:04:36.959Z,22.76
2016-06-30T08:05:36.927Z,22.74
2016-06-30T08:06:36.907Z,22.81
2016-06-30T08:07:36.911Z,22.7
2016-06-30T08:08:36.892Z,22.76
2016-06-30T08:09:36.901Z,22.79
2016-06-30T08:10:36.863Z,22.54
2016-06-30T08:11:36.264Z,22.19
2016-06-30T08:12:36.825Z,22.02
2016-06-30T08:13:36.821Z,21.98
2016-06-30T08:14:36.807Z,21.94
2016-06-30T08:15:36.802Z,21.82
2016-06-30T08:16:36.778Z,21.73
2016-06-30T08:17:36.149Z,21.52
2016-06-30T08:18:36.731Z,21.58
2016-06-30T08:19:36.714Z,21.3
2016-06-30T08:20:36.711Z,21.3
2016-06-30T08:21:36.696Z,21.43
2016-06-30T08:22:36.691Z,21.59
2016-06-30T08:23:36.674Z,21.77
2016-06-30T08:24:36.665Z,21.94
2016-06-30T08:25:36.646Z,22.09
2016-06-30T08:26:36.622Z,22.27
2016-06-30T08:27:36.610Z,22.35
2016-06-30T08:28:36.575Z,22.41
2016-06-30T08:29:36.591Z,22.52
2016-06-30T08:30:36.578Z,22.52
2016-06-30T08:31:36.560Z,22.57
2016-06-30T08:32:36.536Z,22.6
2016-06-30T08:33:36.523Z,22.51
2016-06-30T08:34:36.503Z,22.54
2016-06-30T08:35:35.924Z,22.59
2016-06-30T08:36:36.471Z,22.6
2016-06-30T08:37:36.460Z,22.6
2016-06-30T08:38:36.452Z,22.69
2016-06-30T08:39:36.425Z,22.67
2016-06-30T08:40:36.485Z,22.72
2016-06-30T08:41:36.391Z,22.7
2016-06-30T08:42:36.370Z,22.67
2016-06-30T08:43:36.371Z,22.69
2016-06-30T08:44:36.344Z,22.67
2016-06-30T08:45:36.337Z,22.7
2016-06-30T08:46:36.313Z,22.7
2016-06-30T08:47:36.313Z,22.75
2016-06-30T08:48:36.288Z,22.79
2016-06-30T08:49:36.284Z,22.84
2016-06-30T08:50:36.254Z,22.82
2016-06-30T08:51:36.241Z,22.79
2016-06-30T08:52:36.222Z,22.82
2016-06-30T08:53:36.218Z,22.81
2016-06-30T08:54:35.593Z,22.88
2016-06-30T08:55:35.588Z,22.76
2016-06-30T08:56:36.178Z,22.81
2016-06-30T08:57:36.170Z,22.86
2016-06-30T08:58:36.127Z,22.76
2016-06-30T08:59:36.120Z,22.78
2016-06-30T09:00:36.129Z,22.81
2016-06-30T09:01:36.111Z,22.79
2016-06-30T09:02:35.478Z,22.81
2016-06-30T09:03:36.071Z,22.81
2016-06-30T09:04:36.042Z,22.86
2016-06-30T09:05:36.087Z,22.85
2016-06-30T09:06:35.407Z,22.86
2016-06-30T09:07:36.007Z,22.85
2016-06-30T09:08:35.985Z,22.85
2016-06-30T09:09:35.988Z,22.85
2016-06-30T09:10:35.994Z,22.86
2016-06-30T09:11:35.978Z,22.89
2016-06-30T09:12:35.944Z,22.84
2016-06-30T09:13:35.909Z,22.84
2016-06-30T09:14:35.906Z,22.81
2016-06-30T09:15:35.276Z,22.86
2016-06-30T09:16:35.886Z,22.84
2016-06-30T09:17:35.864Z,22.86
2016-06-30T09:18:35.853Z,22.89
2016-06-30T09:19:35.807Z,22.88
2016-06-30T09:20:35.809Z,22.89
2016-06-30T09:21:35.791Z,22.89
2016-06-30T09:22:35.838Z,22.84
2016-06-30T09:23:35.766Z,22.88
2016-06-30T09:24:35.747Z,22.89
2016-06-30T09:25:35.126Z,22.85
2016-06-30T09:26:35.713Z,22.93
2016-06-30T09:27:35.698Z,22.89
2016-06-30T09:28:35.691Z,22.84
2016-06-30T09:29:35.082Z,22.99
2016-06-30T09:30:35.668Z,22.89
2016-06-30T09:31:35.656Z,22.85
2016-06-30T09:32:35.626Z,22.86
2016-06-30T09:33:35.631Z,22.84
2016-06-30T09:34:35.638Z,22.89
2016-06-30T09:35:35.593Z,22.91
2016-06-30T09:36:35.573Z,22.93
2016-06-30T09:37:35.562Z,22.93
2016-06-30T09:38:35.556Z,22.96
2016-06-30T09:39:35.522Z,23.01
2016-06-30T09:40:35.533Z,23.04
2016-06-30T09:41:35.494Z,23
2016-06-30T09:42:35.477Z,23.03
2016-06-30T09:43:35.487Z,22.99
2016-06-30T09:44:35.465Z,22.97
2016-06-30T09:45:35.434Z,23.04
2016-06-30T09:46:35.422Z,22.93
2016-06-30T09:47:35.434Z,23.01
2016-06-30T09:48:35.418Z,23.03
2016-06-30T09:49:35.374Z,23
2016-06-30T09:50:35.360Z,23
2016-06-30T09:51:35.365Z,23.01
2016-06-30T09:52:35.343Z,23
2016-06-30T09:53:35.308Z,23.03
2016-06-30T09:54:34.697Z,23.06
2016-06-30T09:55:34.711Z,23.06
2016-06-30T09:56:35.279Z,23.14
2016-06-30T09:57:34.674Z,23.06
2016-06-30T09:58:34.676Z,22.99
2016-06-30T09:59:35.227Z,23.11
2016-06-30T10:00:35.227Z,23.12
2016-06-30T10:01:35.205Z,23.15
2016-06-30T10:02:35.189Z,23.11
2016-06-30T10:03:34.578Z,23.11
2016-06-30T10:04:35.171Z,23.03
2016-06-30T10:05:35.165Z,23.03
2016-06-30T10:06:35.180Z,22.99
2016-06-30T10:07:35.169Z,23.09
2016-06-30T10:08:34.611Z,23.01
2016-06-30T10:09:35.301Z,22.97
2016-06-30T10:10:35.085Z,23.03
2016-06-30T10:11:35.058Z,23.01
2016-06-30T10:12:34.446Z,22.84
2016-06-30T10:13:35.036Z,22.79
2016-06-30T10:14:35.022Z,22.66
2016-06-30T10:15:35.026Z,22.49
2016-06-30T10:16:34.979Z,22.57
2016-06-30T10:17:34.967Z,22.57
2016-06-30T10:18:34.959Z,22.41
2016-06-30T10:19:34.951Z,22.52
2016-06-30T10:20:34.319Z,22.48
2016-06-30T10:21:34.940Z,22.39
2016-06-30T10:22:34.905Z,22.38
2016-06-30T10:23:34.872Z,22.44
2016-06-30T10:24:34.881Z,22.48
2016-06-30T10:25:34.265Z,22.41
2016-06-30T10:26:34.828Z,22.38
2016-06-30T10:27:34.234Z,22.35
2016-06-30T10:28:34.210Z,22.39
2016-06-30T10:29:34.208Z,22.41
2016-06-30T10:30:34.171Z,22.31
2016-06-30T10:31:34.151Z,22.31
2016-06-30T10:32:34.746Z,22.29
2016-06-30T10:33:34.713Z,22.3
2016-06-30T10:34:34.750Z,22.24
2016-06-30T10:35:34.103Z,22.35
2016-06-30T10:36:34.089Z,22.26
2016-06-30T10:37:34.678Z,22.23
2016-06-30T10:38:34.656Z,22.26
2016-06-30T10:39:34.647Z,22.19
2016-06-30T10:40:34.623Z,22.21
2016-06-30T10:41:34.621Z,22.35
2016-06-30T10:42:34.616Z,22.31
2016-06-30T10:43:34.572Z,22.36
2016-06-30T10:44:34.569Z,22.36
2016-06-30T10:45:34.585Z,22.29
2016-06-30T10:46:34.536Z,22.3
2016-06-30T10:47:34.526Z,22.45
2016-06-30T10:48:33.909Z,22.51
2016-06-30T10:49:34.510Z,22.41
2016-06-30T10:50:34.466Z,22.48
2016-06-30T10:51:34.490Z,22.48
2016-06-30T10:52:33.893Z,22.49
2016-06-30T10:53:34.461Z,22.42
2016-06-30T10:54:34.439Z,22.52
2016-06-30T10:55:34.412Z,22.49
2016-06-30T10:56:34.382Z,22.56
2016-06-30T10:57:34.387Z,22.52
2016-06-30T10:58:34.351Z,22.52
2016-06-30T10:59:34.391Z,22.52
2016-06-30T11:00:34.347Z,22.42
2016-06-30T11:01:34.305Z,22.51
2016-06-30T11:02:33.707Z,22.35
2016-06-30T11:03:34.293Z,22.42
2016-06-30T11:04:33.719Z,22.45
2016-06-30T11:05:34.282Z,22.46
2016-06-30T11:06:34.267Z,22.39
2016-06-30T11:07:34.212Z,22.33
2016-06-30T11:08:34.212Z,22.36
2016-06-30T11:09:34.227Z,22.38
2016-06-30T11:10:33.586Z,22.3
2016-06-30T11:11:33.566Z,22.36
2016-06-30T11:12:33.548Z,22.46
2016-06-30T11:13:34.137Z,22.49
2016-06-30T11:14:34.133Z,22.44
2016-06-30T11:15:34.179Z,22.49
2016-06-30T11:16:34.104Z,22.45
2016-06-30T11:17:34.105Z,22.49
2016-06-30T11:18:34.048Z,22.46
2016-06-30T11:19:34.033Z,22.64
2016-06-30T11:20:34.034Z,22.46
2016-06-30T11:21:33.410Z,22.56
2016-06-30T11:22:34.014Z,22.46
2016-06-30T11:23:33.998Z,22.51
2016-06-30T11:24:33.962Z,22.56
2016-06-30T11:25:33.954Z,22.48
2016-06-30T11:26:33.977Z,22.49
2016-06-30T11:27:33.947Z,22.57
2016-06-30T11:28:33.904Z,22.45
2016-06-30T11:29:33.885Z,22.48
2016-06-30T11:30:33.909Z,22.45
2016-06-30T11:31:33.859Z,22.45
2016-06-30T11:32:33.843Z,22.51
2016-06-30T11:33:33.832Z,22.44
2016-06-30T11:34:33.811Z,22.35
2016-06-30T11:35:33.806Z,22.51
2016-06-30T11:36:33.779Z,22.56
2016-06-30T11:37:33.813Z,22.51
2016-06-30T11:38:33.159Z,22.64
2016-06-30T11:39:33.791Z,22.76
2016-06-30T11:40:33.734Z,22.79
2016-06-30T11:41:33.111Z,22.82
2016-06-30T11:42:33.754Z,22.81
2016-06-30T11:43:33.721Z,22.88
2016-06-30T11:44:33.685Z,22.93
2016-06-30T11:45:33.667Z,22.84
2016-06-30T11:46:33.651Z,22.85
2016-06-30T11:47:33.658Z,22.84
2016-06-30T11:48:33.633Z,22.89
2016-06-30T11:49:33.594Z,22.88
2016-06-30T11:50:33.594Z,22.86
2016-06-30T11:51:33.575Z,22.76
2016-06-30T11:52:33.554Z,22.81
2016-06-30T11:53:33.546Z,22.81
2016-06-30T11:54:33.526Z,22.82
2016-06-30T11:55:33.506Z,22.81
2016-06-30T11:56:33.482Z,22.79
2016-06-30T11:57:33.469Z,22.84
2016-06-30T11:58:33.459Z,22.84
2016-06-30T11:59:33.449Z,22.88
2016-06-30T12:00:33.440Z,22.81
2016-06-30T12:01:33.481Z,22.81
2016-06-30T12:02:33.405Z,22.91
2016-06-30T12:03:33.387Z,22.89
2016-06-30T12:04:33.381Z,22.89
2016-06-30T12:05:33.346Z,22.88
2016-06-30T12:06:33.346Z,22.85
2016-06-30T12:07:33.327Z,22.86
2016-06-30T12:08:33.310Z,22.85
2016-06-30T12:09:33.297Z,22.81
2016-06-30T12:10:33.290Z,22.85
2016-06-30T12:11:33.259Z,22.81
2016-06-30T12:12:33.252Z,22.84
2016-06-30T12:13:33.225Z,22.86
2016-06-30T12:14:33.210Z,22.88
2016-06-30T12:15:33.203Z,22.89
2016-06-30T12:16:33.207Z,23.03
2016-06-30T12:17:33.186Z,22.99
2016-06-30T12:18:33.166Z,23
2016-06-30T12:19:33.146Z,23.04
2016-06-30T12:20:32.555Z,22.97
2016-06-30T12:21:33.135Z,23.03
2016-06-30T12:22:33.107Z,23
2016-06-30T12:23:33.081Z,23
2016-06-30T12:24:33.081Z,22.96
2016-06-30T12:25:33.061Z,22.97
2016-06-30T12:26:33.034Z,23.03
2016-06-30T12:27:33.025Z,23.01
2016-06-30T12:28:33.257Z,22.99
2016-06-30T12:29:32.416Z,22.99
2016-06-30T12:30:32.995Z,23
2016-06-30T12:31:32.979Z,23
2016-06-30T12:32:32.365Z,23
2016-06-30T12:33:33.123Z,22.96
2016-06-30T12:34:32.923Z,23
2016-06-30T12:35:32.306Z,23
2016-06-30T12:36:32.277Z,22.88
2016-06-30T12:37:32.897Z,22.91
2016-06-30T12:38:32.871Z,22.82
2016-06-30T12:39:32.858Z,22.84
2016-06-30T12:40:32.845Z,22.79
2016-06-30T12:41:32.822Z,22.75
2016-06-30T12:42:32.204Z,22.72
2016-06-30T12:43:32.182Z,22.7
2016-06-30T12:44:32.773Z,22.7
2016-06-30T12:45:32.792Z,22.69
2016-06-30T12:46:32.157Z,22.57
2016-06-30T12:47:32.728Z,22.59
2016-06-30T12:48:32.735Z,22.6
2016-06-30T12:49:32.715Z,22.67
2016-06-30T12:50:32.692Z,22.66
2016-06-30T12:51:32.668Z,22.66
2016-06-30T12:52:32.700Z,22.61
2016-06-30T12:53:32.654Z,22.67
2016-06-30T12:54:32.630Z,22.7
2016-06-30T12:55:32.619Z,22.81
2016-06-30T12:56:32.617Z,22.81
2016-06-30T12:57:32.605Z,22.84